sensor_id;sensor_type;location;lat;lon;timestamp;pressure;altitude;pressure_sealevel;temperature;humidity
14242;BME280;7205;50.864;12.766;2023-04-24T00:00:37;96411.56;;;13.75;82.13
14242;BME280;7205;50.864;12.766;2023-04-24T00:03:06;96413.69;;;13.73;82.13
14242;BME280;7205;50.864;12.766;2023-04-24T00:05:33;96414.91;;;13.70;82.20
14242;BME280;7205;50.864;12.766;2023-04-24T00:08:00;96409.84;;;13.69;81.97
14242;BME280;7205;50.864;12.766;2023-04-24T00:10:26;96428.63;;;13.67;82.48
14242;BME280;7205;50.864;12.766;2023-04-24T00:12:54;96432.53;;;13.65;82.73
14242;BME280;7205;50.864;12.766;2023-04-24T00:15:22;96424.22;;;13.61;82.60
14242;BME280;7205;50.864;12.766;2023-04-24T00:17:49;96412.00;;;13.60;82.92
14242;BME280;7205;50.864;12.766;2023-04-24T00:20:16;96411.41;;;13.58;83.20
14242;BME280;7205;50.864;12.766;2023-04-24T00:22:44;96405.50;;;13.56;83.36
14242;BME280;7205;50.864;12.766;2023-04-24T00:25:11;96410.25;;;13.54;83.65
14242;BME280;7205;50.864;12.766;2023-04-24T00:27:39;96407.22;;;13.51;83.66
14242;BME280;7205;50.864;12.766;2023-04-24T00:30:11;96409.28;;;13.49;83.90
14242;BME280;7205;50.864;12.766;2023-04-24T00:32:38;96406.28;;;13.45;84.22
14242;BME280;7205;50.864;12.766;2023-04-24T00:35:06;96403.03;;;13.43;84.29
14242;BME280;7205;50.864;12.766;2023-04-24T00:37:33;96404.53;;;13.39;84.33
14242;BME280;7205;50.864;12.766;2023-04-24T00:40:00;96414.53;;;13.37;84.80
14242;BME280;7205;50.864;12.766;2023-04-24T00:42:27;96419.47;;;13.34;85.03
14242;BME280;7205;50.864;12.766;2023-04-24T00:44:55;96411.16;;;13.30;85.18
14242;BME280;7205;50.864;12.766;2023-04-24T00:47:25;96407.31;;;13.26;85.37
14242;BME280;7205;50.864;12.766;2023-04-24T00:49:52;96409.81;;;13.21;85.44
14242;BME280;7205;50.864;12.766;2023-04-24T00:52:18;96409.47;;;13.18;85.86
14242;BME280;7205;50.864;12.766;2023-04-24T00:54:46;96405.63;;;13.14;86.03
14242;BME280;7205;50.864;12.766;2023-04-24T00:57:13;96406.31;;;13.09;86.30
14242;BME280;7205;50.864;12.766;2023-04-24T00:59:41;96404.28;;;13.05;86.72
14242;BME280;7205;50.864;12.766;2023-04-24T01:02:08;96410.03;;;13.02;86.66
14242;BME280;7205;50.864;12.766;2023-04-24T01:04:38;96414.34;;;12.96;86.64
14242;BME280;7205;50.864;12.766;2023-04-24T01:07:06;96416.84;;;12.91;87.19
14242;BME280;7205;50.864;12.766;2023-04-24T01:09:36;96412.81;;;12.89;87.60
14242;BME280;7205;50.864;12.766;2023-04-24T01:12:04;96412.66;;;12.84;88.00
14242;BME280;7205;50.864;12.766;2023-04-24T01:14:31;96410.22;;;12.82;88.34
14242;BME280;7205;50.864;12.766;2023-04-24T01:16:58;96406.97;;;12.80;88.71
14242;BME280;7205;50.864;12.766;2023-04-24T01:19:27;96401.91;;;12.79;88.90
14242;BME280;7205;50.864;12.766;2023-04-24T01:21:58;96400.06;;;12.79;89.02
14242;BME280;7205;50.864;12.766;2023-04-24T01:24:26;96394.56;;;12.81;89.24
14242;BME280;7205;50.864;12.766;2023-04-24T01:26:53;96394.34;;;12.82;89.67
14242;BME280;7205;50.864;12.766;2023-04-24T01:29:20;96407.56;;;12.82;89.44
14242;BME280;7205;50.864;12.766;2023-04-24T01:31:47;96408.38;;;12.83;89.65
14242;BME280;7205;50.864;12.766;2023-04-24T01:34:14;96410.00;;;12.84;89.92
14242;BME280;7205;50.864;12.766;2023-04-24T01:36:42;96411.59;;;12.85;89.54
14242;BME280;7205;50.864;12.766;2023-04-24T01:39:10;96407.13;;;12.85;89.64
14242;BME280;7205;50.864;12.766;2023-04-24T01:41:38;96401.00;;;12.85;89.63
14242;BME280;7205;50.864;12.766;2023-04-24T01:44:05;96405.72;;;12.83;89.46
14242;BME280;7205;50.864;12.766;2023-04-24T01:46:32;96406.53;;;12.83;89.43
14242;BME280;7205;50.864;12.766;2023-04-24T01:49:00;96399.84;;;12.81;89.72
14242;BME280;7205;50.864;12.766;2023-04-24T01:51:27;96407.81;;;12.81;89.44
14242;BME280;7205;50.864;12.766;2023-04-24T01:53:56;96399.63;;;12.82;89.54
14242;BME280;7205;50.864;12.766;2023-04-24T01:56:22;96399.84;;;12.81;89.59
14242;BME280;7205;50.864;12.766;2023-04-24T01:58:52;96403.72;;;12.78;89.41
14242;BME280;7205;50.864;12.766;2023-04-24T02:01:20;96411.69;;;12.78;89.47
14242;BME280;7205;50.864;12.766;2023-04-24T02:03:47;96401.31;;;12.77;89.37
14242;BME280;7205;50.864;12.766;2023-04-24T02:06:14;96408.66;;;12.75;89.10
14242;BME280;7205;50.864;12.766;2023-04-24T02:08:41;96416.81;;;12.73;89.06
14242;BME280;7205;50.864;12.766;2023-04-24T02:11:08;96410.94;;;12.71;88.95
14242;BME280;7205;50.864;12.766;2023-04-24T02:13:35;96415.84;;;12.68;89.25
14242;BME280;7205;50.864;12.766;2023-04-24T02:16:03;96412.41;;;12.67;89.11
14242;BME280;7205;50.864;12.766;2023-04-24T02:18:30;96400.63;;;12.63;89.13
14242;BME280;7205;50.864;12.766;2023-04-24T02:20:57;96404.75;;;12.59;89.14
14242;BME280;7205;50.864;12.766;2023-04-24T02:23:24;96413.09;;;12.56;88.84
14242;BME280;7205;50.864;12.766;2023-04-24T02:25:52;96406.03;;;12.50;88.94
14242;BME280;7205;50.864;12.766;2023-04-24T02:28:19;96408.09;;;12.48;89.37
14242;BME280;7205;50.864;12.766;2023-04-24T02:30:46;96404.84;;;12.46;89.06
14242;BME280;7205;50.864;12.766;2023-04-24T02:33:14;96409.75;;;12.42;89.08
14242;BME280;7205;50.864;12.766;2023-04-24T02:35:41;96406.53;;;12.40;88.84
14242;BME280;7205;50.864;12.766;2023-04-24T02:38:08;96412.25;;;12.37;89.08
14242;BME280;7205;50.864;12.766;2023-04-24T02:40:35;96410.03;;;12.34;89.15
14242;BME280;7205;50.864;12.766;2023-04-24T02:43:02;96409.66;;;12.31;88.89
14242;BME280;7205;50.864;12.766;2023-04-24T02:45:29;96406.22;;;12.30;89.28
14242;BME280;7205;50.864;12.766;2023-04-24T02:47:56;96405.03;;;12.26;89.20
14242;BME280;7205;50.864;12.766;2023-04-24T02:50:24;96405.03;;;12.26;88.72
14242;BME280;7205;50.864;12.766;2023-04-24T02:52:51;96398.53;;;12.22;89.10
14242;BME280;7205;50.864;12.766;2023-04-24T02:55:17;96400.59;;;12.20;88.95
14242;BME280;7205;50.864;12.766;2023-04-24T02:57:44;96393.06;;;12.17;88.43
14242;BME280;7205;50.864;12.766;2023-04-24T03:00:12;96392.50;;;12.15;88.67
14242;BME280;7205;50.864;12.766;2023-04-24T03:02:39;96398.00;;;12.14;88.41
14242;BME280;7205;50.864;12.766;2023-04-24T03:05:06;96394.97;;;12.10;88.76
14242;BME280;7205;50.864;12.766;2023-04-24T03:07:36;96399.66;;;12.08;88.83
14242;BME280;7205;50.864;12.766;2023-04-24T03:10:03;96406.19;;;12.06;89.13
14242;BME280;7205;50.864;12.766;2023-04-24T03:12:30;96403.97;;;12.03;88.98
14242;BME280;7205;50.864;12.766;2023-04-24T03:14:57;96403.38;;;12.01;88.87
14242;BME280;7205;50.864;12.766;2023-04-24T03:17:23;96400.16;;;11.99;89.55
14242;BME280;7205;50.864;12.766;2023-04-24T03:19:50;96400.56;;;11.96;89.16
14242;BME280;7205;50.864;12.766;2023-04-24T03:22:17;96404.47;;;11.93;89.81
14242;BME280;7205;50.864;12.766;2023-04-24T03:24:46;96416.03;;;11.92;89.80
14242;BME280;7205;50.864;12.766;2023-04-24T03:27:15;96404.69;;;11.92;90.14
14242;BME280;7205;50.864;12.766;2023-04-24T03:29:52;96397.75;;;11.91;89.64
14242;BME280;7205;50.864;12.766;2023-04-24T03:32:23;96392.47;;;11.91;90.42
14242;BME280;7205;50.864;12.766;2023-04-24T03:34:51;96391.88;;;11.89;90.21
14242;BME280;7205;50.864;12.766;2023-04-24T03:37:19;96401.22;;;11.91;90.36
14242;BME280;7205;50.864;12.766;2023-04-24T03:40:11;96397.53;;;11.92;90.60
14242;BME280;7205;50.864;12.766;2023-04-24T03:42:38;96397.53;;;11.92;91.16
14242;BME280;7205;50.864;12.766;2023-04-24T03:45:06;96400.00;;;11.94;91.26
14242;BME280;7205;50.864;12.766;2023-04-24T03:47:36;96409.31;;;11.96;91.33
14242;BME280;7205;50.864;12.766;2023-04-24T03:50:05;96408.09;;;11.99;91.34
14242;BME280;7205;50.864;12.766;2023-04-24T03:52:33;96412.94;;;12.02;90.92
14242;BME280;7205;50.864;12.766;2023-04-24T03:55:01;96410.91;;;12.04;91.46
14242;BME280;7205;50.864;12.766;2023-04-24T03:57:32;96407.81;;;12.07;90.85
14242;BME280;7205;50.864;12.766;2023-04-24T04:00:12;96403.13;;;12.09;90.42
14242;BME280;7205;50.864;12.766;2023-04-24T04:02:47;96405.56;;;12.10;90.45
14242;BME280;7205;50.864;12.766;2023-04-24T04:05:14;96401.88;;;12.11;90.31
14242;BME280;7205;50.864;12.766;2023-04-24T04:07:40;96395.38;;;12.14;90.04
14242;BME280;7205;50.864;12.766;2023-04-24T04:10:08;96393.72;;;12.13;90.04
14242;BME280;7205;50.864;12.766;2023-04-24T04:12:37;96391.91;;;12.13;90.08
14242;BME280;7205;50.864;12.766;2023-04-24T04:15:05;96399.84;;;12.13;90.03
14242;BME280;7205;50.864;12.766;2023-04-24T04:17:32;96393.50;;;12.14;89.69
14242;BME280;7205;50.864;12.766;2023-04-24T04:20:05;96396.75;;;12.16;89.54
14242;BME280;7205;50.864;12.766;2023-04-24T04:22:35;96394.72;;;12.18;89.73
14242;BME280;7205;50.864;12.766;2023-04-24T04:25:05;96393.44;;;12.21;89.26
14242;BME280;7205;50.864;12.766;2023-04-24T04:27:32;96410.16;;;12.21;89.16
14242;BME280;7205;50.864;12.766;2023-04-24T04:30:09;96409.13;;;12.22;89.52
14242;BME280;7205;50.864;12.766;2023-04-24T04:32:56;96407.06;;;12.24;89.36
14242;BME280;7205;50.864;12.766;2023-04-24T04:35:23;96396.25;;;12.26;89.32
14242;BME280;7205;50.864;12.766;2023-04-24T04:37:51;96394.22;;;12.28;88.99
14242;BME280;7205;50.864;12.766;2023-04-24T04:40:38;96394.81;;;12.30;88.79
14242;BME280;7205;50.864;12.766;2023-04-24T04:43:06;96395.19;;;12.33;88.47
14242;BME280;7205;50.864;12.766;2023-04-24T04:45:46;96390.06;;;12.38;88.65
14242;BME280;7205;50.864;12.766;2023-04-24T04:48:32;96385.16;;;12.42;88.11
14242;BME280;7205;50.864;12.766;2023-04-24T04:51:01;96388.97;;;12.46;88.10
14242;BME280;7205;50.864;12.766;2023-04-24T04:53:28;96398.09;;;12.50;88.00
14242;BME280;7205;50.864;12.766;2023-04-24T04:55:56;96399.31;;;12.54;87.14
14242;BME280;7205;50.864;12.766;2023-04-24T04:58:28;96395.38;;;12.56;87.04
14242;BME280;7205;50.864;12.766;2023-04-24T05:00:59;96392.09;;;12.61;86.94
14242;BME280;7205;50.864;12.766;2023-04-24T05:03:34;96402.84;;;12.66;86.77
14242;BME280;7205;50.864;12.766;2023-04-24T05:06:07;96402.19;;;12.71;86.48
14242;BME280;7205;50.864;12.766;2023-04-24T05:08:37;96406.38;;;12.78;86.11
14242;BME280;7205;50.864;12.766;2023-04-24T05:11:07;96398.59;;;12.83;86.04
14242;BME280;7205;50.864;12.766;2023-04-24T05:13:35;96410.75;;;12.91;85.94
14242;BME280;7205;50.864;12.766;2023-04-24T05:16:07;96409.63;;;12.98;85.68
14242;BME280;7205;50.864;12.766;2023-04-24T05:18:34;96419.19;;;13.06;85.26
14242;BME280;7205;50.864;12.766;2023-04-24T05:21:01;96413.44;;;13.09;84.73
14242;BME280;7205;50.864;12.766;2023-04-24T05:23:28;96413.34;;;13.15;84.28
14242;BME280;7205;50.864;12.766;2023-04-24T05:25:56;96416.38;;;13.19;83.68
14242;BME280;7205;50.864;12.766;2023-04-24T05:28:23;96424.72;;;13.22;83.22
14242;BME280;7205;50.864;12.766;2023-04-24T05:31:02;96430.38;;;13.26;82.74
14242;BME280;7205;50.864;12.766;2023-04-24T05:33:31;96421.75;;;13.30;82.51
14242;BME280;7205;50.864;12.766;2023-04-24T05:35:58;96425.59;;;13.34;82.26
14242;BME280;7205;50.864;12.766;2023-04-24T05:38:25;96427.56;;;13.39;81.92
14242;BME280;7205;50.864;12.766;2023-04-24T05:40:52;96429.91;;;13.47;81.87
14242;BME280;7205;50.864;12.766;2023-04-24T05:43:19;96421.88;;;13.53;81.34
14242;BME280;7205;50.864;12.766;2023-04-24T05:45:46;96426.28;;;13.59;80.74
14242;BME280;7205;50.864;12.766;2023-04-24T05:48:12;96421.91;;;13.65;80.34
14242;BME280;7205;50.864;12.766;2023-04-24T05:50:41;96426.72;;;13.74;80.08
14242;BME280;7205;50.864;12.766;2023-04-24T05:53:08;96434.94;;;13.84;80.07
14242;BME280;7205;50.864;12.766;2023-04-24T05:55:36;96436.00;;;13.95;79.64
14242;BME280;7205;50.864;12.766;2023-04-24T05:58:03;96434.19;;;14.07;79.29
14242;BME280;7205;50.864;12.766;2023-04-24T06:00:32;96427.44;;;14.23;81.68
14242;BME280;7205;50.864;12.766;2023-04-24T06:03:04;96434.19;;;14.37;81.56
14242;BME280;7205;50.864;12.766;2023-04-24T06:05:31;96435.81;;;14.49;81.38
14242;BME280;7205;50.864;12.766;2023-04-24T06:08:00;96430.75;;;14.59;80.45
14242;BME280;7205;50.864;12.766;2023-04-24T06:10:32;96438.84;;;14.64;79.48
14242;BME280;7205;50.864;12.766;2023-04-24T06:12:59;96436.91;;;14.71;78.83
14242;BME280;7205;50.864;12.766;2023-04-24T06:15:28;96432.72;;;14.75;77.28
14242;BME280;7205;50.864;12.766;2023-04-24T06:17:59;96431.34;;;14.73;75.35
14242;BME280;7205;50.864;12.766;2023-04-24T06:20:26;96426.63;;;14.63;73.61
14242;BME280;7205;50.864;12.766;2023-04-24T06:22:57;96428.56;;;14.56;73.17
14242;BME280;7205;50.864;12.766;2023-04-24T06:25:26;96437.44;;;14.50;72.41
14242;BME280;7205;50.864;12.766;2023-04-24T06:27:53;96441.84;;;14.45;72.14
14242;BME280;7205;50.864;12.766;2023-04-24T06:30:20;96432.94;;;14.39;71.88
14242;BME280;7205;50.864;12.766;2023-04-24T06:32:47;96435.47;;;14.34;71.93
14242;BME280;7205;50.864;12.766;2023-04-24T06:35:14;96427.94;;;14.31;72.20
14242;BME280;7205;50.864;12.766;2023-04-24T06:37:42;96423.88;;;14.29;71.86
14242;BME280;7205;50.864;12.766;2023-04-24T06:40:10;96412.47;;;14.28;71.76
14242;BME280;7205;50.864;12.766;2023-04-24T06:42:38;96427.59;;;14.28;71.51
14242;BME280;7205;50.864;12.766;2023-04-24T06:45:08;96422.28;;;14.28;71.60
14242;BME280;7205;50.864;12.766;2023-04-24T06:47:35;96420.44;;;14.28;71.60
14242;BME280;7205;50.864;12.766;2023-04-24T06:50:02;96423.09;;;14.28;71.09
14242;BME280;7205;50.864;12.766;2023-04-24T06:52:29;96421.22;;;14.29;71.00
14242;BME280;7205;50.864;12.766;2023-04-24T06:55:00;96417.34;;;14.31;71.20
14242;BME280;7205;50.864;12.766;2023-04-24T06:57:27;96407.06;;;14.35;71.10
14242;BME280;7205;50.864;12.766;2023-04-24T06:59:56;96410.84;;;14.39;70.87
14242;BME280;7205;50.864;12.766;2023-04-24T07:02:22;96416.06;;;14.45;70.62
14242;BME280;7205;50.864;12.766;2023-04-24T07:04:49;96416.66;;;14.47;70.47
14242;BME280;7205;50.864;12.766;2023-04-24T07:07:18;96419.88;;;14.49;70.15
14242;BME280;7205;50.864;12.766;2023-04-24T07:09:45;96426.56;;;14.52;70.17
14242;BME280;7205;50.864;12.766;2023-04-24T07:12:11;96423.50;;;14.55;70.15
14242;BME280;7205;50.864;12.766;2023-04-24T07:14:39;96420.59;;;14.56;70.04
14242;BME280;7205;50.864;12.766;2023-04-24T07:17:07;96419.09;;;14.60;69.51
14242;BME280;7205;50.864;12.766;2023-04-24T07:19:34;96428.91;;;14.60;69.02
14242;BME280;7205;50.864;12.766;2023-04-24T07:22:01;96431.81;;;14.58;68.81
14242;BME280;7205;50.864;12.766;2023-04-24T07:24:28;96426.50;;;14.58;68.73
14242;BME280;7205;50.864;12.766;2023-04-24T07:26:57;96428.91;;;14.60;68.59
14242;BME280;7205;50.864;12.766;2023-04-24T07:29:24;96416.44;;;14.60;68.62
14242;BME280;7205;50.864;12.766;2023-04-24T07:31:51;96418.97;;;14.67;69.06
14242;BME280;7205;50.864;12.766;2023-04-24T07:34:20;96416.78;;;14.75;69.13
14242;BME280;7205;50.864;12.766;2023-04-24T07:36:47;96421.06;;;14.88;69.28
14242;BME280;7205;50.864;12.766;2023-04-24T07:39:14;96409.59;;;14.99;68.75
14242;BME280;7205;50.864;12.766;2023-04-24T07:41:41;96429.03;;;15.11;68.63
14242;BME280;7205;50.864;12.766;2023-04-24T07:44:08;96424.97;;;15.20;67.67
14242;BME280;7205;50.864;12.766;2023-04-24T07:46:35;96430.75;;;15.29;67.32
14242;BME280;7205;50.864;12.766;2023-04-24T07:49:02;96432.13;;;15.43;66.78
14242;BME280;7205;50.864;12.766;2023-04-24T07:51:31;96431.28;;;15.54;65.28
14242;BME280;7205;50.864;12.766;2023-04-24T07:54:03;96429.28;;;15.61;64.67
14242;BME280;7205;50.864;12.766;2023-04-24T07:56:30;96430.53;;;15.70;64.21
14242;BME280;7205;50.864;12.766;2023-04-24T07:58:57;96435.00;;;15.81;63.94
14242;BME280;7205;50.864;12.766;2023-04-24T08:01:24;96442.63;;;15.89;62.76
14242;BME280;7205;50.864;12.766;2023-04-24T08:03:51;96432.88;;;15.94;61.96
14242;BME280;7205;50.864;12.766;2023-04-24T08:06:18;96435.06;;;15.97;61.27
14242;BME280;7205;50.864;12.766;2023-04-24T08:08:46;96435.94;;;16.03;61.45
14242;BME280;7205;50.864;12.766;2023-04-24T08:11:12;96441.13;;;16.09;61.13
14242;BME280;7205;50.864;12.766;2023-04-24T08:13:39;96437.78;;;16.14;61.05
14242;BME280;7205;50.864;12.766;2023-04-24T08:16:06;96441.81;;;16.16;60.63
14242;BME280;7205;50.864;12.766;2023-04-24T08:18:33;96445.38;;;16.22;60.07
14242;BME280;7205;50.864;12.766;2023-04-24T08:21:01;96447.69;;;16.18;58.71
14242;BME280;7205;50.864;12.766;2023-04-24T08:23:28;96448.09;;;16.10;58.19
14242;BME280;7205;50.864;12.766;2023-04-24T08:25:56;96445.56;;;16.04;58.39
14242;BME280;7205;50.864;12.766;2023-04-24T08:28:24;96451.16;;;16.02;58.65
14242;BME280;7205;50.864;12.766;2023-04-24T08:30:51;96442.09;;;16.03;58.46
14242;BME280;7205;50.864;12.766;2023-04-24T08:33:20;96446.94;;;16.06;58.74
14242;BME280;7205;50.864;12.766;2023-04-24T08:35:46;96440.44;;;16.14;58.95
14242;BME280;7205;50.864;12.766;2023-04-24T08:38:15;96441.66;;;16.23;58.72
14242;BME280;7205;50.864;12.766;2023-04-24T08:40:42;96446.81;;;16.29;58.17
14242;BME280;7205;50.864;12.766;2023-04-24T08:43:13;96446.75;;;16.41;58.61
14242;BME280;7205;50.864;12.766;2023-04-24T08:45:41;96446.75;;;16.53;58.58
14242;BME280;7205;50.864;12.766;2023-04-24T08:48:09;96446.97;;;16.68;58.16
14242;BME280;7205;50.864;12.766;2023-04-24T08:50:36;96445.50;;;16.77;57.53
14242;BME280;7205;50.864;12.766;2023-04-24T08:53:04;96442.09;;;16.81;57.33
14242;BME280;7205;50.864;12.766;2023-04-24T08:55:33;96448.81;;;16.84;56.46
14242;BME280;7205;50.864;12.766;2023-04-24T08:58:02;96446.56;;;16.76;55.48
14242;BME280;7205;50.864;12.766;2023-04-24T09:00:33;96445.84;;;16.64;55.61
14242;BME280;7205;50.864;12.766;2023-04-24T09:03:01;96451.25;;;16.52;55.83
14242;BME280;7205;50.864;12.766;2023-04-24T09:05:29;96445.47;;;16.44;56.16
14242;BME280;7205;50.864;12.766;2023-04-24T09:07:57;96442.56;;;16.45;57.11
14242;BME280;7205;50.864;12.766;2023-04-24T09:10:25;96449.78;;;16.61;57.38
14242;BME280;7205;50.864;12.766;2023-04-24T09:12:54;96448.59;;;16.85;57.48
14242;BME280;7205;50.864;12.766;2023-04-24T09:15:22;96441.88;;;16.99;55.96
14242;BME280;7205;50.864;12.766;2023-04-24T09:17:51;96445.41;;;17.05;55.32
14242;BME280;7205;50.864;12.766;2023-04-24T09:20:18;96448.38;;;17.08;54.33
14242;BME280;7205;50.864;12.766;2023-04-24T09:22:45;96449.38;;;17.02;53.83
14242;BME280;7205;50.864;12.766;2023-04-24T09:25:12;96447.13;;;16.94;53.71
14242;BME280;7205;50.864;12.766;2023-04-24T09:27:43;96451.66;;;16.94;54.19
14242;BME280;7205;50.864;12.766;2023-04-24T09:30:12;96444.38;;;17.06;54.73
14242;BME280;7205;50.864;12.766;2023-04-24T09:32:39;96445.63;;;17.20;54.07
14242;BME280;7205;50.864;12.766;2023-04-24T09:35:10;96446.50;;;17.25;52.68
14242;BME280;7205;50.864;12.766;2023-04-24T09:37:39;96452.84;;;17.19;51.55
14242;BME280;7205;50.864;12.766;2023-04-24T09:40:15;96471.75;;;17.01;50.99
14242;BME280;7205;50.864;12.766;2023-04-24T09:42:46;96461.50;;;16.77;50.69
14242;BME280;7205;50.864;12.766;2023-04-24T09:45:13;96457.78;;;16.61;51.47
14242;BME280;7205;50.864;12.766;2023-04-24T09:47:41;96460.34;;;16.56;51.89
14242;BME280;7205;50.864;12.766;2023-04-24T09:50:14;96455.28;;;16.55;51.83
14242;BME280;7205;50.864;12.766;2023-04-24T09:52:43;96469.09;;;16.68;51.74
14242;BME280;7205;50.864;12.766;2023-04-24T09:55:14;96457.31;;;16.81;51.31
14242;BME280;7205;50.864;12.766;2023-04-24T09:57:49;96462.06;;;16.95;50.96
14242;BME280;7205;50.864;12.766;2023-04-24T10:00:22;96459.63;;;17.10;50.16
14242;BME280;7205;50.864;12.766;2023-04-24T10:02:55;96467.03;;;17.25;50.01
14242;BME280;7205;50.864;12.766;2023-04-24T10:05:29;96453.56;;;17.36;50.08
14242;BME280;7205;50.864;12.766;2023-04-24T10:07:57;96463.84;;;17.44;49.14
14242;BME280;7205;50.864;12.766;2023-04-24T10:10:25;96462.72;;;17.40;48.82
14242;BME280;7205;50.864;12.766;2023-04-24T10:12:52;96463.72;;;17.34;48.69
14242;BME280;7205;50.864;12.766;2023-04-24T10:15:20;96457.25;;;17.30;48.73
14242;BME280;7205;50.864;12.766;2023-04-24T10:17:48;96463.00;;;17.22;48.48
14242;BME280;7205;50.864;12.766;2023-04-24T10:20:22;96466.56;;;17.11;48.36
14242;BME280;7205;50.864;12.766;2023-04-24T10:22:52;96476.38;;;17.06;48.85
14242;BME280;7205;50.864;12.766;2023-04-24T10:25:20;96472.63;;;17.07;48.70
14242;BME280;7205;50.864;12.766;2023-04-24T10:27:49;96470.63;;;17.14;48.58
14242;BME280;7205;50.864;12.766;2023-04-24T10:30:16;96467.69;;;17.15;47.75
14242;BME280;7205;50.864;12.766;2023-04-24T10:32:43;96465.59;;;17.17;47.66
14242;BME280;7205;50.864;12.766;2023-04-24T10:35:12;96474.19;;;17.19;46.72
14242;BME280;7205;50.864;12.766;2023-04-24T10:37:44;96474.50;;;17.23;45.96
14242;BME280;7205;50.864;12.766;2023-04-24T10:40:17;96472.63;;;17.23;45.53
14242;BME280;7205;50.864;12.766;2023-04-24T10:42:47;96483.53;;;17.22;44.93
14242;BME280;7205;50.864;12.766;2023-04-24T10:45:17;96480.53;;;17.18;45.10
14242;BME280;7205;50.864;12.766;2023-04-24T10:47:59;96480.06;;;17.21;44.94
14242;BME280;7205;50.864;12.766;2023-04-24T10:50:28;96483.34;;;17.28;45.00
14242;BME280;7205;50.864;12.766;2023-04-24T10:53:05;96483.75;;;17.37;44.17
14242;BME280;7205;50.864;12.766;2023-04-24T10:55:46;96483.81;;;17.42;43.55
14242;BME280;7205;50.864;12.766;2023-04-24T10:58:13;96490.97;;;17.53;43.72
14242;BME280;7205;50.864;12.766;2023-04-24T11:00:43;96487.09;;;17.66;43.21
14242;BME280;7205;50.864;12.766;2023-04-24T11:03:25;96486.34;;;17.70;42.57
14242;BME280;7205;50.864;12.766;2023-04-24T11:05:56;96478.16;;;17.77;42.38
14242;BME280;7205;50.864;12.766;2023-04-24T11:08:25;96488.13;;;17.81;42.07
14242;BME280;7205;50.864;12.766;2023-04-24T11:10:59;96476.63;;;17.81;41.72
14242;BME280;7205;50.864;12.766;2023-04-24T11:13:40;96496.38;;;17.80;41.58
14242;BME280;7205;50.864;12.766;2023-04-24T11:16:20;96498.47;;;17.78;41.34
14242;BME280;7205;50.864;12.766;2023-04-24T11:18:51;96497.09;;;17.75;40.23
14242;BME280;7205;50.864;12.766;2023-04-24T11:21:20;96502.81;;;17.62;39.74
14242;BME280;7205;50.864;12.766;2023-04-24T11:23:47;96499.13;;;17.46;39.26
14242;BME280;7205;50.864;12.766;2023-04-24T11:26:21;96502.34;;;17.32;39.59
14242;BME280;7205;50.864;12.766;2023-04-24T11:28:50;96513.03;;;17.32;40.19
14242;BME280;7205;50.864;12.766;2023-04-24T11:31:37;96509.41;;;17.38;40.59
14242;BME280;7205;50.864;12.766;2023-04-24T11:34:09;96507.13;;;17.46;40.52
14242;BME280;7205;50.864;12.766;2023-04-24T11:36:36;96516.03;;;17.52;40.07
14242;BME280;7205;50.864;12.766;2023-04-24T11:39:03;96513.66;;;17.56;40.65
14242;BME280;7205;50.864;12.766;2023-04-24T11:41:32;96509.78;;;17.63;40.28
14242;BME280;7205;50.864;12.766;2023-04-24T11:44:00;96526.34;;;17.65;40.60
14242;BME280;7205;50.864;12.766;2023-04-24T11:46:28;96518.91;;;17.67;39.51
14242;BME280;7205;50.864;12.766;2023-04-24T11:48:57;96521.56;;;17.67;39.08
14242;BME280;7205;50.864;12.766;2023-04-24T11:51:25;96519.66;;;17.63;38.61
14242;BME280;7205;50.864;12.766;2023-04-24T11:53:53;96512.13;;;17.60;38.55
14242;BME280;7205;50.864;12.766;2023-04-24T11:56:21;96523.00;;;17.53;38.65
14242;BME280;7205;50.864;12.766;2023-04-24T11:58:51;96520.94;;;17.43;38.87
14242;BME280;7205;50.864;12.766;2023-04-24T12:01:18;96525.69;;;17.41;39.08
14242;BME280;7205;50.864;12.766;2023-04-24T12:03:48;96534.53;;;17.42;39.61
14242;BME280;7205;50.864;12.766;2023-04-24T12:06:16;96521.28;;;17.47;38.85
14242;BME280;7205;50.864;12.766;2023-04-24T12:08:46;96530.38;;;17.46;38.04
14242;BME280;7205;50.864;12.766;2023-04-24T12:11:15;96531.28;;;17.40;37.63
14242;BME280;7205;50.864;12.766;2023-04-24T12:13:43;96540.59;;;17.37;37.61
14242;BME280;7205;50.864;12.766;2023-04-24T12:16:11;96534.06;;;17.28;37.27
14242;BME280;7205;50.864;12.766;2023-04-24T12:18:42;96536.81;;;17.17;37.28
14242;BME280;7205;50.864;12.766;2023-04-24T12:21:19;96524.56;;;16.99;37.42
14242;BME280;7205;50.864;12.766;2023-04-24T12:23:46;96523.56;;;16.89;37.92
14242;BME280;7205;50.864;12.766;2023-04-24T12:26:16;96515.25;;;16.85;38.25
14242;BME280;7205;50.864;12.766;2023-04-24T12:28:46;96528.56;;;16.85;38.37
14242;BME280;7205;50.864;12.766;2023-04-24T12:31:15;96532.31;;;16.84;38.09
14242;BME280;7205;50.864;12.766;2023-04-24T12:33:44;96528.81;;;16.84;38.20
14242;BME280;7205;50.864;12.766;2023-04-24T12:36:13;96532.84;;;16.86;38.92
14242;BME280;7205;50.864;12.766;2023-04-24T12:38:43;96517.41;;;16.88;39.10
14242;BME280;7205;50.864;12.766;2023-04-24T12:41:13;96529.47;;;16.91;39.84
14242;BME280;7205;50.864;12.766;2023-04-24T12:43:51;96526.88;;;16.96;39.62
14242;BME280;7205;50.864;12.766;2023-04-24T12:46:20;96524.63;;;17.04;39.28
14242;BME280;7205;50.864;12.766;2023-04-24T12:48:47;96518.06;;;17.12;39.36
14242;BME280;7205;50.864;12.766;2023-04-24T12:51:13;96516.38;;;17.22;39.15
14242;BME280;7205;50.864;12.766;2023-04-24T12:53:40;96512.53;;;17.35;38.81
14242;BME280;7205;50.864;12.766;2023-04-24T12:56:07;96516.75;;;17.47;38.36
14242;BME280;7205;50.864;12.766;2023-04-24T12:58:34;96515.13;;;17.63;38.47
14242;BME280;7205;50.864;12.766;2023-04-24T13:01:01;96506.00;;;17.81;37.44
14242;BME280;7205;50.864;12.766;2023-04-24T13:03:31;96517.06;;;17.89;36.91
14242;BME280;7205;50.864;12.766;2023-04-24T13:06:37;96513.81;;;17.87;36.38
14242;BME280;7205;50.864;12.766;2023-04-24T13:13:16;96509.72;;;17.80;37.21